sensor_id;sensor_type;location;lat;lon;timestamp;pressure;altitude;pressure_sealevel;temperature;humidity
75549;BME280;64133;56.002;37.208;2023-02-02T00:04:18;97995.69;;;-1.18;85.46
75549;BME280;64133;56.002;37.208;2023-02-02T00:09:22;97998.56;;;-1.15;85.35
75549;BME280;64133;56.002;37.208;2023-02-02T00:14:27;98001.11;;;-1.22;85.18
75549;BME280;64133;56.002;37.208;2023-02-02T00:19:31;97996.34;;;-1.21;85.19
75549;BME280;64133;56.002;37.208;2023-02-02T00:24:36;97983.42;;;-1.21;85.15
75549;BME280;64133;56.002;37.208;2023-02-02T00:29:41;97988.66;;;-1.23;85.11
75549;BME280;64133;56.002;37.208;2023-02-02T00:34:48;97987.99;;;-1.27;85.12
75549;BME280;64133;56.002;37.208;2023-02-02T00:39:52;97982.66;;;-1.31;85.10
75549;BME280;64133;56.002;37.208;2023-02-02T00:44:57;97989.27;;;-1.34;84.96
75549;BME280;64133;56.002;37.208;2023-02-02T00:50:20;97983.44;;;-1.37;84.91
75549;BME280;64133;56.002;37.208;2023-02-02T00:55:25;97981.84;;;-1.40;84.75
75549;BME280;64133;56.002;37.208;2023-02-02T01:00:29;97986.17;;;-1.47;84.68
75549;BME280;64133;56.002;37.208;2023-02-02T01:05:34;97983.86;;;-1.45;84.76
75549;BME280;64133;56.002;37.208;2023-02-02T01:10:41;97981.01;;;-1.47;84.56
75549;BME280;64133;56.002;37.208;2023-02-02T01:15:45;97978.33;;;-1.46;84.30
75549;BME280;64133;56.002;37.208;2023-02-02T01:20:57;97984.22;;;-1.51;83.92
75549;BME280;64133;56.002;37.208;2023-02-02T01:26:03;97983.08;;;-1.54;83.63
75549;BME280;64133;56.002;37.208;2023-02-02T01:31:07;97974.30;;;-1.59;83.18
75549;BME280;64133;56.002;37.208;2023-02-02T01:36:12;97972.27;;;-1.77;82.95
75549;BME280;64133;56.002;37.208;2023-02-02T01:41:17;97971.62;;;-1.96;83.05
75549;BME280;64133;56.002;37.208;2023-02-02T01:46:22;97966.05;;;-1.97;83.05
75549;BME280;64133;56.002;37.208;2023-02-02T01:51:28;97966.02;;;-1.88;82.95
75549;BME280;64133;56.002;37.208;2023-02-02T01:56:32;97967.20;;;-1.78;82.79
75549;BME280;64133;56.002;37.208;2023-02-02T02:01:36;97970.52;;;-1.76;82.55
75549;BME280;64133;56.002;37.208;2023-02-02T02:06:41;97970.83;;;-1.73;82.57
75549;BME280;64133;56.002;37.208;2023-02-02T02:11:46;97969.53;;;-1.73;82.51
75549;BME280;64133;56.002;37.208;2023-02-02T02:16:57;97969.59;;;-1.75;82.47
75549;BME280;64133;56.002;37.208;2023-02-02T02:22:00;97970.31;;;-1.80;82.49
75549;BME280;64133;56.002;37.208;2023-02-02T02:33:25;97973.91;;;-1.83;82.41
75549;BME280;64133;56.002;37.208;2023-02-02T02:38:32;97969.02;;;-1.80;82.48
75549;BME280;64133;56.002;37.208;2023-02-02T02:43:36;97980.58;;;-1.87;82.54
75549;BME280;64133;56.002;37.208;2023-02-02T02:48:40;97980.17;;;-1.80;82.64
75549;BME280;64133;56.002;37.208;2023-02-02T02:53:44;97986.05;;;-1.85;82.58
75549;BME280;64133;56.002;37.208;2023-02-02T02:58:50;97985.27;;;-1.78;82.67
75549;BME280;64133;56.002;37.208;2023-02-02T03:03:59;97983.73;;;-1.73;82.59
75549;BME280;64133;56.002;37.208;2023-02-02T03:09:04;97983.89;;;-1.77;82.38
75549;BME280;64133;56.002;37.208;2023-02-02T03:14:07;97989.45;;;-1.84;82.37
75549;BME280;64133;56.002;37.208;2023-02-02T03:19:12;97990.38;;;-1.85;82.44
75549;BME280;64133;56.002;37.208;2023-02-02T03:24:17;97984.91;;;-1.88;82.41
75549;BME280;64133;56.002;37.208;2023-02-02T03:29:21;97989.39;;;-1.83;82.39
75549;BME280;64133;56.002;37.208;2023-02-02T03:34:26;97991.27;;;-1.78;82.29
75549;BME280;64133;56.002;37.208;2023-02-02T03:39:31;97993.29;;;-1.75;82.12
75549;BME280;64133;56.002;37.208;2023-02-02T03:44:36;97997.72;;;-1.78;81.93
75549;BME280;64133;56.002;37.208;2023-02-02T03:49:40;97995.84;;;-1.83;81.78
75549;BME280;64133;56.002;37.208;2023-02-02T03:54:45;97998.58;;;-1.86;81.73
75549;BME280;64133;56.002;37.208;2023-02-02T03:59:50;97991.45;;;-1.89;81.47
75549;BME280;64133;56.002;37.208;2023-02-02T04:04:54;97994.03;;;-1.89;81.43
75549;BME280;64133;56.002;37.208;2023-02-02T04:09:59;98001.88;;;-1.91;81.48
75549;BME280;64133;56.002;37.208;2023-02-02T04:15:05;97998.89;;;-1.92;81.37
75549;BME280;64133;56.002;37.208;2023-02-02T04:20:11;97996.62;;;-1.89;81.38
75549;BME280;64133;56.002;37.208;2023-02-02T04:25:16;98008.54;;;-1.87;81.34
75549;BME280;64133;56.002;37.208;2023-02-02T04:30:21;98009.15;;;-1.90;81.16
75549;BME280;64133;56.002;37.208;2023-02-02T04:35:26;98006.02;;;-1.88;81.15
75549;BME280;64133;56.002;37.208;2023-02-02T04:40:31;98012.10;;;-1.89;81.04
75549;BME280;64133;56.002;37.208;2023-02-02T04:45:35;98014.53;;;-1.86;81.06
75549;BME280;64133;56.002;37.208;2023-02-02T04:50:40;98017.17;;;-1.88;80.96
75549;BME280;64133;56.002;37.208;2023-02-02T04:55:44;98022.52;;;-1.91;81.00
75549;BME280;64133;56.002;37.208;2023-02-02T05:00:49;98019.84;;;-1.89;80.99
75549;BME280;64133;56.002;37.208;2023-02-02T05:06:02;98020.67;;;-1.89;80.86
75549;BME280;64133;56.002;37.208;2023-02-02T05:11:10;98026.41;;;-1.84;80.85
75549;BME280;64133;56.002;37.208;2023-02-02T05:16:14;98029.18;;;-1.87;80.71
75549;BME280;64133;56.002;37.208;2023-02-02T05:21:19;98026.30;;;-1.89;80.67
75549;BME280;64133;56.002;37.208;2023-02-02T05:26:23;98026.59;;;-1.87;80.65
75549;BME280;64133;56.002;37.208;2023-02-02T05:31:28;98025.09;;;-1.91;80.52
75549;BME280;64133;56.002;37.208;2023-02-02T05:36:33;98024.64;;;-1.90;80.42
75549;BME280;64133;56.002;37.208;2023-02-02T05:41:38;98030.47;;;-1.87;80.33
75549;BME280;64133;56.002;37.208;2023-02-02T05:46:42;98035.23;;;-1.88;80.25
75549;BME280;64133;56.002;37.208;2023-02-02T05:51:48;98028.99;;;-1.84;80.21
75549;BME280;64133;56.002;37.208;2023-02-02T05:56:52;98040.61;;;-1.84;80.04
75549;BME280;64133;56.002;37.208;2023-02-02T06:01:57;98035.91;;;-1.84;79.96
75549;BME280;64133;56.002;37.208;2023-02-02T06:07:02;98042.33;;;-1.75;79.92
75549;BME280;64133;56.002;37.208;2023-02-02T06:12:07;98045.58;;;-1.72;79.81
75549;BME280;64133;56.002;37.208;2023-02-02T06:17:12;98040.98;;;-1.74;79.60
75549;BME280;64133;56.002;37.208;2023-02-02T06:22:16;98044.93;;;-1.60;79.63
75549;BME280;64133;56.002;37.208;2023-02-02T06:27:21;98045.16;;;-1.48;79.37
75549;BME280;64133;56.002;37.208;2023-02-02T06:32:29;98055.64;;;-1.43;79.21
75549;BME280;64133;56.002;37.208;2023-02-02T06:37:34;98055.01;;;-1.55;78.88
75549;BME280;64133;56.002;37.208;2023-02-02T06:42:39;98059.88;;;-1.42;78.90
75549;BME280;64133;56.002;37.208;2023-02-02T06:47:43;98021.86;;;-1.63;78.46
75549;BME280;64133;56.002;37.208;2023-02-02T06:52:48;98061.29;;;-1.36;78.46
75549;BME280;64133;56.002;37.208;2023-02-02T06:57:57;98055.41;;;-1.31;78.16
75549;BME280;64133;56.002;37.208;2023-02-02T07:03:01;98063.94;;;-1.22;78.32
75549;BME280;64133;56.002;37.208;2023-02-02T07:08:06;98068.47;;;-1.25;78.09
75549;BME280;64133;56.002;37.208;2023-02-02T07:13:11;98069.56;;;-1.22;78.10
75549;BME280;64133;56.002;37.208;2023-02-02T07:18:15;98067.66;;;-1.19;78.01
75549;BME280;64133;56.002;37.208;2023-02-02T07:23:20;98072.92;;;-0.97;77.76
75549;BME280;64133;56.002;37.208;2023-02-02T07:28:25;98080.06;;;-1.10;77.67
75549;BME280;64133;56.002;37.208;2023-02-02T07:33:30;98078.26;;;-1.01;77.65
75549;BME280;64133;56.002;37.208;2023-02-02T07:38:34;98084.09;;;-0.97;77.25
75549;BME280;64133;56.002;37.208;2023-02-02T07:43:39;98082.06;;;-0.99;77.52
75549;BME280;64133;56.002;37.208;2023-02-02T07:48:44;98076.53;;;-1.00;77.30
75549;BME280;64133;56.002;37.208;2023-02-02T07:53:49;98080.05;;;-0.94;77.11
75549;BME280;64133;56.002;37.208;2023-02-02T07:58:53;98071.15;;;-0.44;76.45
75549;BME280;64133;56.002;37.208;2023-02-02T08:03:58;98066.17;;;-0.47;76.07
75549;BME280;64133;56.002;37.208;2023-02-02T08:09:03;98066.11;;;-0.24;75.27
75549;BME280;64133;56.002;37.208;2023-02-02T08:14:09;98062.63;;;-0.53;75.21
75549;BME280;64133;56.002;37.208;2023-02-02T08:19:12;98056.73;;;-0.48;75.27
75549;BME280;64133;56.002;37.208;2023-02-02T08:24:16;98069.63;;;-0.25;74.62
75549;BME280;64133;56.002;37.208;2023-02-02T08:29:21;98070.08;;;0.39;74.03
75549;BME280;64133;56.002;37.208;2023-02-02T08:34:26;98078.51;;;0.57;72.17
75549;BME280;64133;56.002;37.208;2023-02-02T08:39:30;98079.35;;;0.29;72.40
75549;BME280;64133;56.002;37.208;2023-02-02T08:44:35;98077.79;;;0.19;73.00
75549;BME280;64133;56.002;37.208;2023-02-02T08:49:40;98075.70;;;0.60;71.78
75549;BME280;64133;56.002;37.208;2023-02-02T08:54:45;98078.23;;;0.88;70.67
75549;BME280;64133;56.002;37.208;2023-02-02T08:59:50;98080.52;;;0.59;70.73
75549;BME280;64133;56.002;37.208;2023-02-02T09:04:54;98084.46;;;1.65;68.97
75549;BME280;64133;56.002;37.208;2023-02-02T09:09:59;98079.77;;;3.26;67.95
75549;BME280;64133;56.002;37.208;2023-02-02T09:15:04;98074.20;;;5.23;62.98
75549;BME280;64133;56.002;37.208;2023-02-02T09:20:11;98071.54;;;3.78;61.84
75549;BME280;64133;56.002;37.208;2023-02-02T09:25:16;98067.88;;;4.93;61.34
75549;BME280;64133;56.002;37.208;2023-02-02T09:30:21;98058.23;;;3.18;62.01
75549;BME280;64133;56.002;37.208;2023-02-02T09:35:25;98071.35;;;2.93;62.57
75549;BME280;64133;56.002;37.208;2023-02-02T09:40:30;98077.13;;;2.10;63.70
75549;BME280;64133;56.002;37.208;2023-02-02T09:45:37;98058.98;;;1.65;64.91
75549;BME280;64133;56.002;37.208;2023-02-02T09:50:44;98073.59;;;1.98;65.62
75549;BME280;64133;56.002;37.208;2023-02-02T09:55:49;98064.16;;;1.12;65.34
75549;BME280;64133;56.002;37.208;2023-02-02T10:00:57;98056.47;;;1.83;64.95
75549;BME280;64133;56.002;37.208;2023-02-02T10:06:02;98055.65;;;1.30;65.52
75549;BME280;64133;56.002;37.208;2023-02-02T10:11:11;98044.13;;;1.54;65.77
75549;BME280;64133;56.002;37.208;2023-02-02T10:16:14;98037.52;;;2.50;64.47
75549;BME280;64133;56.002;37.208;2023-02-02T10:21:25;98036.12;;;2.21;63.43
75549;BME280;64133;56.002;37.208;2023-02-02T10:26:29;98043.19;;;1.55;64.34
75549;BME280;64133;56.002;37.208;2023-02-02T10:31:40;98027.17;;;1.94;64.53
75549;BME280;64133;56.002;37.208;2023-02-02T10:36:49;98025.43;;;2.86;63.64
75549;BME280;64133;56.002;37.208;2023-02-02T10:41:57;98031.52;;;2.19;63.44
75549;BME280;64133;56.002;37.208;2023-02-02T10:46:59;98039.52;;;2.03;64.28
75549;BME280;64133;56.002;37.208;2023-02-02T10:52:12;98034.75;;;2.10;63.95
75549;BME280;64133;56.002;37.208;2023-02-02T10:57:11;98038.89;;;1.87;63.55
75549;BME280;64133;56.002;37.208;2023-02-02T11:02:15;98044.33;;;1.18;64.89
75549;BME280;64133;56.002;37.208;2023-02-02T11:07:20;98037.30;;;0.93;65.76
75549;BME280;64133;56.002;37.208;2023-02-02T11:12:26;98041.55;;;0.60;66.02
75549;BME280;64133;56.002;37.208;2023-02-02T11:17:30;98033.71;;;0.47;66.45
75549;BME280;64133;56.002;37.208;2023-02-02T11:22:35;98047.83;;;0.15;67.40
75549;BME280;64133;56.002;37.208;2023-02-02T11:27:40;98045.60;;;0.16;67.74
75549;BME280;64133;56.002;37.208;2023-02-02T11:32:44;98040.32;;;0.17;67.61
75549;BME280;64133;56.002;37.208;2023-02-02T11:38:04;98044.88;;;0.14;68.02
75549;BME280;64133;56.002;37.208;2023-02-02T11:43:05;98045.52;;;0.10;68.05
75549;BME280;64133;56.002;37.208;2023-02-02T11:48:18;98049.48;;;-0.06;68.18
75549;BME280;64133;56.002;37.208;2023-02-02T11:53:23;98055.50;;;-0.12;68.23
75549;BME280;64133;56.002;37.208;2023-02-02T11:58:28;98058.27;;;0.28;68.40
75549;BME280;64133;56.002;37.208;2023-02-02T12:03:34;98057.91;;;0.27;68.10
75549;BME280;64133;56.002;37.208;2023-02-02T12:08:38;98060.48;;;0.12;68.22
75549;BME280;64133;56.002;37.208;2023-02-02T12:13:51;98059.73;;;0.17;68.50
75549;BME280;64133;56.002;37.208;2023-02-02T12:19:16;98067.33;;;0.20;68.39
75549;BME280;64133;56.002;37.208;2023-02-02T12:35:43;98060.41;;;0.14;68.69
75549;BME280;64133;56.002;37.208;2023-02-02T12:40:57;98057.73;;;0.22;68.60
75549;BME280;64133;56.002;37.208;2023-02-02T12:46:22;98049.59;;;0.14;68.68
75549;BME280;64133;56.002;37.208;2023-02-02T12:51:37;98053.64;;;0.04;69.13
75549;BME280;64133;56.002;37.208;2023-02-02T12:56:42;98065.48;;;-0.06;69.52
75549;BME280;64133;56.002;37.208;2023-02-02T13:01:54;98064.56;;;-0.12;69.77
75549;BME280;64133;56.002;37.208;2023-02-02T13:07:08;98069.62;;;-0.18;70.12
75549;BME280;64133;56.002;37.208;2023-02-02T13:12:13;98068.78;;;-0.33;70.52
75549;BME280;64133;56.002;37.208;2023-02-02T13:17:18;98075.05;;;-0.37;71.13
75549;BME280;64133;56.002;37.208;2023-02-02T13:22:24;98075.81;;;-0.35;71.25
75549;BME280;64133;56.002;37.208;2023-02-02T13:27:28;98063.95;;;-0.46;71.75
75549;BME280;64133;56.002;37.208;2023-02-02T13:32:33;98081.98;;;-0.37;71.99
75549;BME280;64133;56.002;37.208;2023-02-02T13:37:38;98079.17;;;-0.48;72.40
75549;BME280;64133;56.002;37.208;2023-02-02T13:42:45;98086.30;;;-0.45;72.94
75549;BME280;64133;56.002;37.208;2023-02-02T13:47:48;98092.41;;;-0.46;73.49
75549;BME280;64133;56.002;37.208;2023-02-02T13:53:03;98087.77;;;-0.55;73.94
75549;BME280;64133;56.002;37.208;2023-02-02T13:58:45;98089.66;;;-0.66;74.80
75549;BME280;64133;56.002;37.208;2023-02-02T14:03:53;98090.48;;;-0.72;75.21
75549;BME280;64133;56.002;37.208;2023-02-02T14:08:58;98098.03;;;-0.77;75.48
75549;BME280;64133;56.002;37.208;2023-02-02T14:14:07;98097.57;;;-0.76;75.78
75549;BME280;64133;56.002;37.208;2023-02-02T14:19:55;98096.74;;;-0.77;76.00
75549;BME280;64133;56.002;37.208;2023-02-02T14:24:59;98098.39;;;-0.83;76.15
75549;BME280;64133;56.002;37.208;2023-02-02T14:30:20;98106.16;;;-0.76;76.26
75549;BME280;64133;56.002;37.208;2023-02-02T14:41:09;98109.83;;;-0.80;76.33
75549;BME280;64133;56.002;37.208;2023-02-02T14:46:39;98117.33;;;-0.75;76.38
75549;BME280;64133;56.002;37.208;2023-02-02T14:51:52;98121.40;;;-0.78;76.25
75549;BME280;64133;56.002;37.208;2023-02-02T14:56:58;98119.64;;;-0.78;76.16
75549;BME280;64133;56.002;37.208;2023-02-02T15:02:14;98125.14;;;-0.84;76.01
75549;BME280;64133;56.002;37.208;2023-02-02T15:13:03;98133.03;;;-0.78;76.09
75549;BME280;64133;56.002;37.208;2023-02-02T15:18:12;98126.67;;;-0.72;76.04
75549;BME280;64133;56.002;37.208;2023-02-02T15:23:20;98126.67;;;-0.72;75.81
75549;BME280;64133;56.002;37.208;2023-02-02T15:28:24;98127.87;;;-0.71;75.91
75549;BME280;64133;56.002;37.208;2023-02-02T15:33:29;98132.98;;;-0.69;75.70
75549;BME280;64133;56.002;37.208;2023-02-02T15:38:34;98141.73;;;-0.72;75.53
75549;BME280;64133;56.002;37.208;2023-02-02T15:43:38;98145.70;;;-0.73;75.58
75549;BME280;64133;56.002;37.208;2023-02-02T15:54:24;98139.44;;;-0.69;75.51
75549;BME280;64133;56.002;37.208;2023-02-02T15:59:39;98145.91;;;-0.69;75.57
75549;BME280;64133;56.002;37.208;2023-02-02T16:04:42;98145.64;;;-0.65;75.51
75549;BME280;64133;56.002;37.208;2023-02-02T16:09:46;98153.47;;;-0.66;75.65
75549;BME280;64133;56.002;37.208;2023-02-02T16:14:52;98158.38;;;-0.62;75.67
75549;BME280;64133;56.002;37.208;2023-02-02T16:20:00;98154.19;;;-0.71;75.62
75549;BME280;64133;56.002;37.208;2023-02-02T16:25:04;98161.12;;;-0.72;75.79
75549;BME280;64133;56.002;37.208;2023-02-02T16:30:14;98163.08;;;-0.68;75.90
75549;BME280;64133;56.002;37.208;2023-02-02T16:35:37;98169.55;;;-0.68;75.89
75549;BME280;64133;56.002;37.208;2023-02-02T16:40:38;98164.37;;;-0.68;75.97
75549;BME280;64133;56.002;37.208;2023-02-02T16:45:45;98173.12;;;-0.71;76.02
75549;BME280;64133;56.002;37.208;2023-02-02T16:50:49;98171.83;;;-0.71;76.06
75549;BME280;64133;56.002;37.208;2023-02-02T16:55:54;98178.22;;;-0.69;76.28
75549;BME280;64133;56.002;37.208;2023-02-02T17:01:00;98191.73;;;-0.64;76.26
75549;BME280;64133;56.002;37.208;2023-02-02T17:06:05;98190.96;;;-0.66;76.23
75549;BME280;64133;56.002;37.208;2023-02-02T17:11:18;98198.26;;;-0.66;76.33
75549;BME280;64133;56.002;37.208;2023-02-02T17:16:23;98192.81;;;-0.68;76.38
75549;BME280;64133;56.002;37.208;2023-02-02T17:21:28;98192.97;;;-0.71;76.51
75549;BME280;64133;56.002;37.208;2023-02-02T17:26:32;98196.48;;;-0.72;76.58
75549;BME280;64133;56.002;37.208;2023-02-02T17:31:37;98198.97;;;-0.71;76.59
75549;BME280;64133;56.002;37.208;2023-02-02T17:36:42;98206.06;;;-0.74;76.65
75549;BME280;64133;56.002;37.208;2023-02-02T17:41:46;98185.25;;;-0.96;76.68
75549;BME280;64133;56.002;37.208;2023-02-02T17:46:55;98207.48;;;-0.85;76.92
75549;BME280;64133;56.002;37.208;2023-02-02T17:51:59;98215.45;;;-0.81;76.90
75549;BME280;64133;56.002;37.208;2023-02-02T17:57:04;98205.00;;;-0.86;77.18
75549;BME280;64133;56.002;37.208;2023-02-02T18:02:11;98215.40;;;-0.88;77.33
75549;BME280;64133;56.002;37.208;2023-02-02T18:07:16;98220.78;;;-0.84;77.60
75549;BME280;64133;56.002;37.208;2023-02-02T18:12:21;98216.84;;;-0.82;77.53
75549;BME280;64133;56.002;37.208;2023-02-02T18:17:25;98216.44;;;-0.83;77.57
75549;BME280;64133;56.002;37.208;2023-02-02T18:22:30;98209.49;;;-0.90;77.67
75549;BME280;64133;56.002;37.208;2023-02-02T18:27:39;98214.57;;;-0.88;77.76
75549;BME280;64133;56.002;37.208;2023-02-02T18:32:44;98222.88;;;-0.90;78.00
75549;BME280;64133;56.002;37.208;2023-02-02T18:37:48;98213.98;;;-0.93;78.06
75549;BME280;64133;56.002;37.208;2023-02-02T18:42:53;98216.48;;;-0.92;78.54
75549;BME280;64133;56.002;37.208;2023-02-02T18:47:58;98229.59;;;-0.95;78.57
75549;BME280;64133;56.002;37.208;2023-02-02T18:53:02;98219.50;;;-0.99;79.03
75549;BME280;64133;56.002;37.208;2023-02-02T18:58:25;98225.19;;;-1.02;79.34
75549;BME280;64133;56.002;37.208;2023-02-02T19:03:30;98230.30;;;-1.00;79.47
75549;BME280;64133;56.002;37.208;2023-02-02T19:08:34;98237.62;;;-1.08;79.73
75549;BME280;64133;56.002;37.208;2023-02-02T19:13:39;98226.02;;;-1.17;79.96
75549;BME280;64133;56.002;37.208;2023-02-02T19:18:44;98229.95;;;-1.18;80.60
75549;BME280;64133;56.002;37.208;2023-02-02T19:23:49;98238.94;;;-1.17;80.91
75549;BME280;64133;56.002;37.208;2023-02-02T19:28:55;98216.78;;;-1.30;81.03
75549;BME280;64133;56.002;37.208;2023-02-02T19:33:58;98246.14;;;-1.15;81.15
75549;BME280;64133;56.002;37.208;2023-02-02T19:39:10;98242.97;;;-1.20;81.26
75549;BME280;64133;56.002;37.208;2023-02-02T19:44:16;98242.14;;;-1.20;81.44
75549;BME280;64133;56.002;37.208;2023-02-02T19:49:22;98241.91;;;-1.24;81.66
75549;BME280;64133;56.002;37.208;2023-02-02T19:54:45;98238.72;;;-1.21;81.98
75549;BME280;64133;56.002;37.208;2023-02-02T19:59:50;98238.72;;;-1.21;81.92
75549;BME280;64133;56.002;37.208;2023-02-02T20:05:00;98241.67;;;-1.20;81.84
75549;BME280;64133;56.002;37.208;2023-02-02T20:10:16;98239.09;;;-1.20;81.92
75549;BME280;64133;56.002;37.208;2023-02-02T20:15:31;98236.75;;;-1.24;81.93
75549;BME280;64133;56.002;37.208;2023-02-02T20:25:51;98238.32;;;-1.22;82.04
75549;BME280;64133;56.002;37.208;2023-02-02T20:30:55;98244.96;;;-1.25;82.13
75549;BME280;64133;56.002;37.208;2023-02-02T20:36:00;98250.13;;;-1.25;82.23
75549;BME280;64133;56.002;37.208;2023-02-02T20:41:05;98250.65;;;-1.27;82.31
75549;BME280;64133;56.002;37.208;2023-02-02T20:46:10;98251.55;;;-1.19;82.36
75549;BME280;64133;56.002;37.208;2023-02-02T20:51:14;98254.50;;;-1.18;82.49
75549;BME280;64133;56.002;37.208;2023-02-02T20:56:20;98252.38;;;-1.19;82.41
75549;BME280;64133;56.002;37.208;2023-02-02T21:01:25;98258.00;;;-1.19;82.68
75549;BME280;64133;56.002;37.208;2023-02-02T21:06:29;98249.52;;;-1.21;82.56
75549;BME280;64133;56.002;37.208;2023-02-02T21:11:34;98251.42;;;-1.25;82.76
75549;BME280;64133;56.002;37.208;2023-02-02T21:16:39;98260.59;;;-1.19;82.91
75549;BME280;64133;56.002;37.208;2023-02-02T21:21:43;98257.48;;;-1.17;82.87
75549;BME280;64133;56.002;37.208;2023-02-02T21:26:48;98258.97;;;-1.13;83.03
75549;BME280;64133;56.002;37.208;2023-02-02T21:31:53;98256.84;;;-1.14;82.89
75549;BME280;64133;56.002;37.208;2023-02-02T21:36:58;98260.28;;;-1.22;82.80
75549;BME280;64133;56.002;37.208;2023-02-02T21:42:13;98268.03;;;-1.22;82.98
75549;BME280;64133;56.002;37.208;2023-02-02T21:47:27;98266.90;;;-1.16;83.02
75549;BME280;64133;56.002;37.208;2023-02-02T21:52:32;98271.23;;;-1.17;82.99
75549;BME280;64133;56.002;37.208;2023-02-02T21:57:37;98270.47;;;-1.19;83.02
75549;BME280;64133;56.002;37.208;2023-02-02T22:02:42;98272.30;;;-1.21;83.15
75549;BME280;64133;56.002;37.208;2023-02-02T22:07:46;98269.27;;;-1.20;83.14
75549;BME280;64133;56.002;37.208;2023-02-02T22:12:51;98269.27;;;-1.20;83.06
75549;BME280;64133;56.002;37.208;2023-02-02T22:17:55;98269.04;;;-1.24;83.21
75549;BME280;64133;56.002;37.208;2023-02-02T22:23:01;98266.67;;;-1.20;83.27
75549;BME280;64133;56.002;37.208;2023-02-02T22:28:10;98266.13;;;-1.18;83.35
75549;BME280;64133;56.002;37.208;2023-02-02T22:33:14;98258.62;;;-1.23;83.33
75549;BME280;64133;56.002;37.208;2023-02-02T22:38:20;98263.73;;;-1.21;83.42
75549;BME280;64133;56.002;37.208;2023-02-02T22:43:24;98263.27;;;-1.21;83.34
75549;BME280;64133;56.002;37.208;2023-02-02T22:48:28;98259.39;;;-1.21;83.53
75549;BME280;64133;56.002;37.208;2023-02-02T22:53:33;98261.88;;;-1.19;83.60
75549;BME280;64133;56.002;37.208;2023-02-02T22:58:38;98269.11;;;-1.17;83.55
75549;BME280;64133;56.002;37.208;2023-02-02T23:03:43;98259.67;;;-1.18;83.63
75549;BME280;64133;56.002;37.208;2023-02-02T23:08:47;98265.30;;;-1.19;83.68
75549;BME280;64133;56.002;37.208;2023-02-02T23:13:52;98266.90;;;-1.16;83.58
75549;BME280;64133;56.002;37.208;2023-02-02T23:18:57;98256.47;;;-1.15;83.58
75549;BME280;64133;56.002;37.208;2023-02-02T23:24:01;98255.52;;;-1.21;83.55
75549;BME280;64133;56.002;37.208;2023-02-02T23:29:06;98253.08;;;-1.24;83.67
75549;BME280;64133;56.002;37.208;2023-02-02T23:34:10;98260.38;;;-1.23;83.70
75549;BME280;64133;56.002;37.208;2023-02-02T23:39:15;98257.88;;;-1.25;83.79
75549;BME280;64133;56.002;37.208;2023-02-02T23:44:20;98252.77;;;-1.27;83.95
75549;BME280;64133;56.002;37.208;2023-02-02T23:49:24;98260.38;;;-1.23;83.80
75549;BME280;64133;56.002;37.208;2023-02-02T23:54:29;98257.05;;;-1.25;83.92
75549;BME280;64133;56.002;37.208;2023-02-02T23:59:34;98255.97;;;-1.21;84.08
